createdAt,value
2022-11-13T15:39:25.648Z,1.3
2022-11-13T15:44:25.986Z,1.3
2022-11-13T15:49:25.740Z,1.9
2022-11-13T15:54:26.012Z,1.9
2022-11-13T15:59:25.167Z,1.3
2022-11-13T16:09:25.372Z,1.5
2022-11-13T16:14:25.710Z,1.5
2022-11-13T16:19:26.208Z,1.3
2022-11-13T16:24:25.436Z,1.3
2022-11-13T16:29:25.838Z,1.2
2022-11-13T16:34:25.122Z,1.2
2022-11-13T16:39:25.363Z,1
2022-11-13T18:29:25.355Z,1.1
2022-11-13T18:34:25.593Z,1.1
2022-11-13T18:39:25.846Z,1.3
2022-11-13T18:44:26.141Z,1.3
2022-11-13T18:49:26.020Z,1.3
2022-11-13T18:54:26.291Z,1.3
2022-11-13T18:59:25.598Z,1
2022-11-13T19:04:25.915Z,1
2022-11-13T19:09:26.146Z,0.8
2022-11-13T19:14:25.935Z,0.8
2022-11-13T19:19:25.245Z,1.3
2022-11-13T19:24:25.449Z,1.3
2022-11-13T19:29:25.848Z,1.3
2022-11-13T19:34:26.168Z,1.3
2022-11-13T19:39:25.461Z,1.8
2022-11-13T19:44:25.704Z,1.8
2022-11-13T19:49:25.973Z,1.5
2022-11-13T19:54:26.204Z,1.5
2022-11-13T19:59:25.362Z,1.3
2022-11-13T20:04:25.673Z,1.3
2022-11-13T20:09:25.895Z,0.9
2022-11-13T20:14:25.501Z,0.9
2022-11-13T20:19:25.711Z,1.3
2022-11-13T20:24:25.806Z,1.3
2022-11-13T20:29:26.056Z,1.8
2022-11-13T20:34:26.339Z,1.8
2022-11-13T20:39:25.592Z,1.3
2022-11-13T20:44:25.845Z,1.3
2022-11-13T20:49:26.443Z,1.2
2022-11-13T20:54:25.844Z,1.2
2022-11-13T20:59:26.128Z,0.9
2022-11-13T21:04:26.233Z,0.9
2022-11-13T21:09:25.450Z,0.9
2022-11-13T21:14:25.830Z,0.9
